createdAt,value
2023-05-21T00:02:19.727Z,99613.50
2023-05-21T00:04:46.414Z,99615.59
2023-05-21T00:07:13.412Z,99617.59
2023-05-21T00:09:40.010Z,99616.06
2023-05-21T00:12:07.561Z,99611.00
2023-05-21T00:14:34.528Z,99612.97
2023-05-21T00:17:01.098Z,99610.31
2023-05-21T00:19:27.720Z,99605.53
2023-05-21T00:21:54.749Z,99602.16
2023-05-21T00:24:21.365Z,99604.00
2023-05-21T00:26:47.952Z,99596.00
2023-05-21T00:29:14.438Z,99600.22
2023-05-21T00:31:41.010Z,99596.69
2023-05-21T00:34:07.548Z,99582.53
2023-05-21T00:36:34.633Z,99589.97
2023-05-21T00:39:02.278Z,99589.69
2023-05-21T00:41:30.095Z,99587.16
2023-05-21T00:43:57.158Z,99583.94
2023-05-21T00:46:23.916Z,99583.94
2023-05-21T00:48:50.966Z,99583.09
2023-05-21T00:51:18.526Z,99580.59
2023-05-21T00:53:45.911Z,99579.19
2023-05-21T00:56:12.662Z,99572.03
2023-05-21T00:58:39.377Z,99573.88
2023-05-21T01:01:06.784Z,99576.38
2023-05-21T01:03:38.295Z,99585.50
2023-05-21T01:06:06.419Z,99578.47
2023-05-21T01:08:37.570Z,99571.47
2023-05-21T01:11:05.356Z,99578.91
2023-05-21T01:13:34.164Z,99578.47
2023-05-21T01:16:01.203Z,99568.84
2023-05-21T01:18:27.732Z,99563.50
2023-05-21T01:20:55.164Z,99564.47
2023-05-21T01:23:21.713Z,99559.31
2023-05-21T01:25:48.177Z,99570.34
2023-05-21T01:28:14.870Z,99568.78
2023-05-21T01:30:43.452Z,99570.47
2023-05-21T01:33:26.706Z,99562.91
2023-05-21T01:35:56.246Z,99558.84
2023-05-21T01:38:29.896Z,99556.19
2023-05-21T01:41:03.607Z,99557.72
2023-05-21T01:43:35.535Z,99558.69
2023-05-21T01:46:02.322Z,99553.66
2023-05-21T01:48:29.938Z,99551.84
2023-05-21T01:50:58.575Z,99550.16
2023-05-21T01:53:25.203Z,99556.19
2023-05-21T01:55:51.724Z,99551.41
2023-05-21T01:58:18.853Z,99548.03
2023-05-21T02:00:45.420Z,99550.56
2023-05-21T02:03:15.101Z,99558.13
2023-05-21T02:05:41.725Z,99554.50
2023-05-21T02:08:11.224Z,99557.75
2023-05-21T02:10:37.706Z,99554.94
2023-05-21T02:13:04.347Z,99553.97
2023-05-21T02:15:30.835Z,99550.31
2023-05-21T02:17:58.267Z,99556.63
2023-05-21T02:20:24.970Z,99551.16
2023-05-21T02:22:51.551Z,99551.00
2023-05-21T02:25:19.583Z,99550.03
2023-05-21T02:27:46.912Z,99551.72
2023-05-21T02:30:15.031Z,99544.25
2023-05-21T02:32:43.106Z,99550.16
2023-05-21T02:35:11.414Z,99548.19
2023-05-21T02:37:39.559Z,99545.53
2023-05-21T02:40:07.260Z,99541.03
2023-05-21T02:42:34.505Z,99548.03
2023-05-21T02:45:01.002Z,99542.72
2023-05-21T02:47:27.540Z,99556.75
2023-05-21T02:49:54.134Z,99547.78
2023-05-21T02:52:23.894Z,99550.97
2023-05-21T02:54:51.881Z,99554.63
2023-05-21T02:57:18.390Z,99544.25
2023-05-21T02:59:45.857Z,99543.28
2023-05-21T03:02:12.587Z,99548.19
2023-05-21T03:04:45.925Z,99543.53
2023-05-21T03:07:17.906Z,99539.19
2023-05-21T03:09:45.383Z,99540.06
2023-05-21T03:12:12.175Z,99532.88
2023-05-21T03:14:38.691Z,99540.31
2023-05-21T03:17:08.161Z,99530.63
2023-05-21T03:19:35.872Z,99526.03
2023-05-21T03:22:03.949Z,99530.81
2023-05-21T03:24:33.103Z,99521.28
2023-05-21T03:27:01.454Z,99519.03
2023-05-21T03:29:28.462Z,99514.00
2023-05-21T03:31:56.170Z,99520.56
2023-05-21T03:34:23.213Z,99528.72
2023-05-21T03:36:50.481Z,99523.78
2023-05-21T03:39:18.457Z,99521.41
2023-05-21T03:41:45.342Z,99522.41
2023-05-21T03:44:19.771Z,99516.66
2023-05-21T03:46:52.313Z,99520.44
2023-05-21T03:49:22.685Z,99527.75
2023-05-21T03:51:51.779Z,99523.09
2023-05-21T03:54:19.942Z,99527.31
2023-05-21T03:56:47.595Z,99527.03
2023-05-21T03:59:14.398Z,99533.03
2023-05-21T04:01:42.646Z,99533.47
2023-05-21T04:04:12.159Z,99536.69
2023-05-21T04:06:38.815Z,99531.09
2023-05-21T04:09:05.368Z,99538.81
2023-05-21T04:11:32.262Z,99530.09
2023-05-21T04:13:58.774Z,99536.13
2023-05-21T04:16:25.373Z,99530.81
2023-05-21T04:18:55.327Z,99531.53
2023-05-21T04:21:23.297Z,99532.91
2023-05-21T04:23:49.873Z,99533.91
2023-05-21T04:26:25.184Z,99546.09
2023-05-21T04:28:53.908Z,99537.28
2023-05-21T04:31:21.888Z,99546.81
2023-05-21T04:33:49.356Z,99542.44
2023-05-21T04:36:17.135Z,99546.50
2023-05-21T04:38:44.395Z,99541.75
2023-05-21T04:41:10.999Z,99546.34
2023-05-21T04:43:38.221Z,99544.44
2023-05-21T04:46:05.869Z,99542.44
2023-05-21T04:48:33.481Z,99545.13
2023-05-21T04:50:59.990Z,99539.78
2023-05-21T04:53:27.250Z,99542.03
2023-05-21T04:55:54.190Z,99544.13
2023-05-21T04:58:20.888Z,99548.19
2023-05-21T05:00:47.572Z,99540.75
2023-05-21T05:03:15.381Z,99537.06
2023-05-21T05:05:43.442Z,99541.28
2023-05-21T05:08:10.040Z,99542.00
2023-05-21T05:10:36.877Z,99542.16
2023-05-21T05:13:03.489Z,99541.44
2023-05-21T05:15:30.460Z,99538.34
2023-05-21T05:17:57.458Z,99538.66
2023-05-21T05:20:23.972Z,99544.25
2023-05-21T05:22:50.906Z,99536.66
2023-05-21T05:25:17.503Z,99539.47
2023-05-21T05:27:44.890Z,99546.91
2023-05-21T05:30:11.747Z,99532.59
2023-05-21T05:32:38.386Z,99540.13
2023-05-21T05:35:05.935Z,99537.44
2023-05-21T05:37:33.551Z,99535.88
2023-05-21T05:40:00.292Z,99521.28
2023-05-21T05:42:27.501Z,99525.63
2023-05-21T05:44:54.506Z,99536.31
2023-05-21T05:47:21.720Z,99533.72
2023-05-21T05:49:48.262Z,99531.53
2023-05-21T05:52:15.098Z,99529.59
2023-05-21T05:54:41.562Z,99539.13
2023-05-21T05:57:09.029Z,99526.59
2023-05-21T05:59:37.892Z,99540.06
2023-05-21T06:02:05.206Z,99541.84
2023-05-21T06:04:31.783Z,99541.41
2023-05-21T06:06:58.583Z,99545.28
2023-05-21T06:09:25.353Z,99538.97
2023-05-21T06:11:51.940Z,99539.38
2023-05-21T06:14:18.472Z,99538.34
2023-05-21T06:16:45.015Z,99538.56
2023-05-21T06:19:12.244Z,99529.34
2023-05-21T06:21:39.133Z,99538.53
2023-05-21T06:24:06.844Z,99545.28
2023-05-21T06:26:33.359Z,99540.69
2023-05-21T06:29:00.052Z,99537.13
2023-05-21T06:31:26.513Z,99539.69
2023-05-21T06:33:53.950Z,99544.56
2023-05-21T06:36:21.452Z,99548.31
2023-05-21T06:38:47.999Z,99542.63
2023-05-21T06:41:14.519Z,99541.66
2023-05-21T06:43:54.044Z,99536.38
2023-05-21T06:46:32.588Z,99542.28
2023-05-21T06:49:00.918Z,99548.53
2023-05-21T06:51:27.500Z,99543.59
2023-05-21T06:53:54.911Z,99548.44
2023-05-21T06:56:22.009Z,99554.16
2023-05-21T06:58:48.483Z,99550.22
2023-05-21T07:01:16.446Z,99552.59
2023-05-21T07:03:43.386Z,99551.78
2023-05-21T07:06:09.935Z,99546.44
2023-05-21T07:08:36.781Z,99545.44
2023-05-21T07:11:03.650Z,99548.47
2023-05-21T07:13:30.330Z,99545.28
2023-05-21T07:15:57.562Z,99545.63
2023-05-21T07:18:25.450Z,99549.00
2023-05-21T07:20:51.933Z,99551.34
2023-05-21T07:23:19.001Z,99554.69
2023-05-21T07:25:45.913Z,99547.66
2023-05-21T07:28:13.519Z,99548.84
2023-05-21T07:30:40.101Z,99552.91
2023-05-21T07:33:12.623Z,99545.75
2023-05-21T07:35:39.388Z,99550.94
2023-05-21T07:38:06.089Z,99546.59
2023-05-21T07:40:32.896Z,99553.31
2023-05-21T07:43:00.964Z,99546.44
2023-05-21T07:45:29.740Z,99539.59
2023-05-21T07:47:56.567Z,99538.06
2023-05-21T07:50:23.261Z,99543.09
2023-05-21T07:52:51.169Z,99540.75
2023-05-21T07:55:19.197Z,99538.25
2023-05-21T07:57:47.027Z,99541.09
2023-05-21T08:00:16.080Z,99532.53
2023-05-21T08:02:46.855Z,99538.41
2023-05-21T08:05:16.278Z,99542.94
2023-05-21T08:07:43.533Z,99545.25
2023-05-21T08:10:10.155Z,99546.28
2023-05-21T08:12:36.688Z,99547.97
2023-05-21T08:15:04.833Z,99543.41
2023-05-21T08:17:34.833Z,99549.78
2023-05-21T08:20:01.932Z,99547.25
2023-05-21T08:22:29.979Z,99537.16
2023-05-21T08:24:56.602Z,99526.88
2023-05-21T08:27:23.129Z,99532.03
2023-05-21T08:29:49.625Z,99528.66
2023-05-21T08:32:16.236Z,99532.28
2023-05-21T08:34:42.907Z,99528.28
2023-05-21T08:37:22.486Z,99520.81
2023-05-21T08:40:09.206Z,99527.84
2023-05-21T08:42:43.894Z,99526.13
2023-05-21T08:45:17.466Z,99522.19
2023-05-21T08:47:44.640Z,99518.13
2023-05-21T08:50:13.261Z,99522.97
2023-05-21T08:52:40.507Z,99522.28
2023-05-21T08:55:08.305Z,99521.56
2023-05-21T08:57:36.326Z,99522.69
2023-05-21T09:00:06.360Z,99526.31
2023-05-21T09:02:35.307Z,99523.56
2023-05-21T09:05:03.707Z,99522.84
2023-05-21T09:07:31.658Z,99522.75
2023-05-21T09:10:24.217Z,99524.75
2023-05-21T09:12:51.002Z,99531.28
2023-05-21T09:15:17.667Z,99520.84
2023-05-21T09:17:47.529Z,99519.47
2023-05-21T09:20:31.047Z,99521.28
2023-05-21T09:23:06.633Z,99515.31
2023-05-21T09:25:33.349Z,99511.22
2023-05-21T09:28:14.562Z,99516.72
2023-05-21T09:30:48.078Z,99525.91
2023-05-21T09:33:31.341Z,99517.28
2023-05-21T09:35:58.231Z,99521.19
2023-05-21T09:38:26.888Z,99515.16
2023-05-21T09:40:56.652Z,99516.16
2023-05-21T09:43:23.560Z,99510.97
2023-05-21T09:45:51.831Z,99516.72
2023-05-21T09:48:42.129Z,99515.88
2023-05-21T09:51:18.521Z,99513.09
2023-05-21T09:53:48.478Z,99519.97
2023-05-21T09:56:15.049Z,99522.75
2023-05-21T09:58:41.614Z,99518.84
2023-05-21T10:01:10.734Z,99516.09
2023-05-21T10:03:39.756Z,99529.91
2023-05-21T10:06:09.007Z,99518.13
2023-05-21T10:08:36.651Z,99525.47
2023-05-21T10:11:06.408Z,99522.09
2023-05-21T10:13:34.375Z,99517.19
2023-05-21T10:16:04.654Z,99511.34
2023-05-21T10:18:32.368Z,99506.16
2023-05-21T10:20:59.396Z,99514.88
2023-05-21T10:23:27.080Z,99506.56
2023-05-21T10:25:54.093Z,99505.13
2023-05-21T10:28:20.869Z,99506.53
2023-05-21T10:30:47.446Z,99495.63
2023-05-21T10:33:16.677Z,99495.28
2023-05-21T10:35:45.014Z,99498.28
2023-05-21T10:38:11.937Z,99496.91
2023-05-21T10:40:38.630Z,99494.56
2023-05-21T10:43:13.639Z,99502.72
2023-05-21T10:45:55.732Z,99490.94
2023-05-21T10:48:43.931Z,99494.13
2023-05-21T10:51:18.218Z,99486.66
2023-05-21T10:54:07.902Z,99485.72
2023-05-21T10:56:40.006Z,99483.09
2023-05-21T10:59:12.396Z,99482.09
2023-05-21T11:01:41.105Z,99481.75
2023-05-21T11:04:07.665Z,99482.41
2023-05-21T11:06:34.226Z,99480.75
2023-05-21T11:09:13.665Z,99472.44
2023-05-21T11:11:50.777Z,99476.38
2023-05-21T11:14:31.427Z,99470.38
2023-05-21T11:17:37.154Z,99473.09
2023-05-21T11:20:16.754Z,99471.47
2023-05-21T11:22:45.599Z,99477.31
2023-05-21T11:25:12.608Z,99468.78
2023-05-21T11:27:40.617Z,99469.63
2023-05-21T11:30:15.504Z,99461.09
2023-05-21T11:33:11.169Z,99449.63
2023-05-21T11:35:49.970Z,99469.81
2023-05-21T11:38:17.672Z,99457.31
2023-05-21T11:40:54.517Z,99454.22
2023-05-21T11:43:20.996Z,99454.44
2023-05-21T11:45:47.622Z,99446.34
2023-05-21T11:48:14.370Z,99446.81
2023-05-21T11:50:42.350Z,99449.72
2023-05-21T11:53:09.070Z,99444.34
2023-05-21T11:55:43.492Z,99450.56
2023-05-21T11:58:13.510Z,99443.72
2023-05-21T12:00:40.483Z,99444.94
2023-05-21T12:03:08.314Z,99446.41
2023-05-21T12:06:05.470Z,99448.47
2023-05-21T12:08:32.122Z,99445.38
2023-05-21T12:10:59.781Z,99443.47
2023-05-21T12:13:26.688Z,99446.16
2023-05-21T12:15:54.087Z,99446.19
2023-05-21T12:18:21.225Z,99445.72
2023-05-21T12:20:47.800Z,99451.13
2023-05-21T12:23:23.437Z,99447.00
2023-05-21T12:25:50.983Z,99445.75
2023-05-21T12:28:17.603Z,99446.56
2023-05-21T12:30:44.144Z,99445.53
2023-05-21T12:33:12.010Z,99445.53
2023-05-21T12:35:38.529Z,99440.31
2023-05-21T12:38:05.085Z,99445.47
2023-05-21T12:40:37.073Z,99439.81
2023-05-21T12:43:04.323Z,99449.56
2023-05-21T12:45:31.908Z,99443.50
2023-05-21T12:48:01.859Z,99442.25
2023-05-21T12:50:28.404Z,99434.94
2023-05-21T12:52:56.009Z,99447.22
2023-05-21T12:55:24.624Z,99443.66
2023-05-21T12:57:51.809Z,99438.63
2023-05-21T13:00:23.618Z,99435.88
2023-05-21T13:02:51.746Z,99430.91
2023-05-21T13:05:18.696Z,99435.88
2023-05-21T13:07:47.434Z,99438.53
2023-05-21T13:10:16.208Z,99425.72
2023-05-21T13:12:44.368Z,99419.00
2023-05-21T13:15:11.541Z,99425.19
2023-05-21T13:17:38.113Z,99429.50
2023-05-21T13:20:08.896Z,99428.19
2023-05-21T13:22:39.045Z,99419.97
2023-05-21T13:25:06.324Z,99419.53
2023-05-21T13:27:32.827Z,99427.41
2023-05-21T13:29:59.354Z,99418.88
2023-05-21T13:32:25.925Z,99419.91
2023-05-21T13:34:52.506Z,99422.13
2023-05-21T13:37:20.473Z,99420.56
2023-05-21T13:39:47.539Z,99422.00
2023-05-21T13:42:14.033Z,99423.56
2023-05-21T13:44:40.695Z,99422.94
2023-05-21T13:47:07.535Z,99424.38
2023-05-21T13:49:34.385Z,99419.25
2023-05-21T13:52:00.935Z,99427.41
2023-05-21T13:54:27.690Z,99431.16
2023-05-21T13:56:54.722Z,99430.28
2023-05-21T13:59:21.240Z,99423.03
2023-05-21T14:01:49.818Z,99431.25
2023-05-21T14:04:16.947Z,99435.53
2023-05-21T14:06:43.554Z,99432.97
2023-05-21T14:09:10.298Z,99427.75
2023-05-21T14:11:36.954Z,99429.63
2023-05-21T14:14:03.548Z,99417.72
2023-05-21T14:16:30.128Z,99421.66
2023-05-21T14:18:57.433Z,99424.38
2023-05-21T14:21:24.715Z,99421.81
2023-05-21T14:23:51.472Z,99413.56
2023-05-21T14:26:18.247Z,99415.81
2023-05-21T14:28:45.367Z,99409.34
2023-05-21T14:31:12.054Z,99418.75
2023-05-21T14:33:38.969Z,99417.22
2023-05-21T14:36:06.005Z,99421.78
2023-05-21T14:38:32.481Z,99414.84
2023-05-21T14:40:58.928Z,99425.41
2023-05-21T14:43:25.461Z,99415.81
2023-05-21T14:45:51.975Z,99425.63
2023-05-21T14:48:22.603Z,99421.59
2023-05-21T14:50:51.022Z,99422.13
2023-05-21T14:53:17.977Z,99417.28
2023-05-21T14:55:44.790Z,99419.06
2023-05-21T14:58:11.331Z,99409.13
2023-05-21T15:00:38.235Z,99417.63
2023-05-21T15:03:05.111Z,99420.13
2023-05-21T15:05:31.801Z,99421.41
2023-05-21T15:07:58.576Z,99414.94
2023-05-21T15:10:28.361Z,99408.44
2023-05-21T15:12:54.970Z,99408.41
2023-05-21T15:15:21.753Z,99407.47
2023-05-21T15:17:49.075Z,99405.50
2023-05-21T15:20:16.477Z,99410.03
2023-05-21T15:22:42.997Z,99406.69
2023-05-21T15:25:09.920Z,99409.41
2023-05-21T15:27:36.460Z,99403.16
2023-05-21T15:30:03.232Z,99402.56
2023-05-21T15:32:30.659Z,99397.81
2023-05-21T15:34:57.181Z,99401.13
2023-05-21T15:37:23.836Z,99395.25
2023-05-21T15:39:50.380Z,99400.75
2023-05-21T15:42:16.963Z,99400.06
2023-05-21T15:44:43.401Z,99391.34
2023-05-21T15:47:09.924Z,99393.91
2023-05-21T15:49:36.376Z,99393.44
2023-05-21T15:52:03.008Z,99401.16
2023-05-21T15:54:30.357Z,99394.88
2023-05-21T15:56:56.888Z,99393.69
2023-05-21T15:59:25.520Z,99392.47
2023-05-21T16:01:51.920Z,99389.63
2023-05-21T16:04:20.219Z,99396.19
2023-05-21T16:06:47.406Z,99399.31
2023-05-21T16:09:16.931Z,99407.28
2023-05-21T16:11:46.242Z,99402.66
2023-05-21T16:14:12.783Z,99398.50
2023-05-21T16:16:39.339Z,99401.47
2023-05-21T16:19:06.057Z,99397.28
2023-05-21T16:21:32.985Z,99395.38
2023-05-21T16:23:59.847Z,99401.13
2023-05-21T16:26:26.323Z,99396.59
2023-05-21T16:28:53.301Z,99397.88
2023-05-21T16:31:19.933Z,99397.31
2023-05-21T16:33:46.450Z,99404.25
2023-05-21T16:36:13.121Z,99402.59
2023-05-21T16:38:40.062Z,99404.47
2023-05-21T16:41:06.715Z,99397.81
2023-05-21T16:43:33.198Z,99404.75
2023-05-21T16:45:59.728Z,99405.41
2023-05-21T16:48:26.199Z,99398.28
2023-05-21T16:50:52.667Z,99402.19
2023-05-21T16:53:19.295Z,99402.34
2023-05-21T16:55:45.742Z,99406.06
2023-05-21T16:58:13.534Z,99402.44
2023-05-21T17:00:40.039Z,99410.09
2023-05-21T17:03:06.825Z,99414.38
2023-05-21T17:05:33.446Z,99410.91
2023-05-21T17:08:00.002Z,99406.56
2023-05-21T17:10:27.410Z,99410.97
2023-05-21T17:12:53.881Z,99415.34
2023-05-21T17:15:20.566Z,99406.44
2023-05-21T17:17:47.097Z,99412.97
2023-05-21T17:20:14.000Z,99407.34
2023-05-21T17:22:40.521Z,99410.72
2023-05-21T17:25:07.582Z,99412.97
2023-05-21T17:27:34.096Z,99414.00
2023-05-21T17:30:00.518Z,99406.91
2023-05-21T17:32:27.378Z,99411.88
2023-05-21T17:34:53.826Z,99404.34
2023-05-21T17:37:20.282Z,99408.94
2023-05-21T17:39:46.752Z,99413.53
2023-05-21T17:42:13.243Z,99411.66
2023-05-21T17:44:39.749Z,99417.28
2023-05-21T17:47:06.846Z,99413.13
2023-05-21T17:49:33.520Z,99420.06
2023-05-21T17:52:00.697Z,99416.97
2023-05-21T17:54:27.309Z,99413.06
2023-05-21T17:56:53.864Z,99422.53
2023-05-21T17:59:21.346Z,99420.31
2023-05-21T18:01:48.012Z,99420.38
2023-05-21T18:04:14.643Z,99426.25
2023-05-21T18:06:41.197Z,99424.22
2023-05-21T18:09:08.005Z,99421.09
2023-05-21T18:11:34.656Z,99430.13
2023-05-21T18:14:01.261Z,99425.59
2023-05-21T18:16:30.132Z,99423.81
2023-05-21T18:18:56.830Z,99424.28
2023-05-21T18:21:23.514Z,99421.03
2023-05-21T18:23:50.097Z,99423.78
2023-05-21T18:26:16.632Z,99428.41
2023-05-21T18:28:43.137Z,99431.59
2023-05-21T18:31:09.649Z,99428.88
2023-05-21T18:33:36.102Z,99424.56
2023-05-21T18:36:02.588Z,99416.84
2023-05-21T18:38:29.048Z,99426.63
2023-05-21T18:40:55.520Z,99426.22
2023-05-21T18:43:22.017Z,99428.09
2023-05-21T18:45:48.484Z,99419.72
2023-05-21T18:48:15.999Z,99418.44
2023-05-21T18:50:42.543Z,99425.91
2023-05-21T18:53:09.955Z,99423.56
2023-05-21T18:55:36.406Z,99430.34
2023-05-21T18:58:02.837Z,99424.41
2023-05-21T19:00:29.481Z,99421.84
2023-05-21T19:02:56.344Z,99429.44
2023-05-21T19:05:22.971Z,99428.69
2023-05-21T19:07:49.550Z,99429.00
2023-05-21T19:10:16.070Z,99428.84
2023-05-21T19:12:43.430Z,99427.94
2023-05-21T19:15:10.407Z,99425.91
2023-05-21T19:17:38.942Z,99426.63
2023-05-21T19:20:09.972Z,99437.09
2023-05-21T19:22:37.095Z,99428.69
2023-05-21T19:25:04.117Z,99431.00
2023-05-21T19:27:30.708Z,99428.59
2023-05-21T19:29:57.271Z,99431.59
2023-05-21T19:32:23.829Z,99437.72
2023-05-21T19:34:51.450Z,99435.81
2023-05-21T19:37:18.022Z,99449.16
2023-05-21T19:39:49.390Z,99449.06
2023-05-21T19:42:17.097Z,99451.03
2023-05-21T19:44:43.727Z,99447.59
2023-05-21T19:47:10.266Z,99461.97
2023-05-21T19:49:36.805Z,99457.31
2023-05-21T19:52:04.102Z,99456.38
2023-05-21T19:54:30.589Z,99458.09
2023-05-21T19:56:57.250Z,99458.84
2023-05-21T19:59:23.716Z,99464.13
2023-05-21T20:01:50.200Z,99465.50
2023-05-21T20:04:16.862Z,99460.84
2023-05-21T20:06:43.512Z,99469.63
2023-05-21T20:09:13.026Z,99463.13
2023-05-21T20:11:39.573Z,99467.19
2023-05-21T20:14:06.164Z,99462.38
2023-05-21T20:16:33.378Z,99462.72
2023-05-21T20:19:01.826Z,99465.94
2023-05-21T20:21:34.119Z,99463.59
2023-05-21T20:24:00.668Z,99457.78
2023-05-21T20:26:27.265Z,99456.94
2023-05-21T20:28:54.020Z,99455.44
2023-05-21T20:31:21.707Z,99456.44
2023-05-21T20:33:50.340Z,99460.31
2023-05-21T20:36:17.801Z,99459.69
2023-05-21T20:38:45.291Z,99455.50
2023-05-21T20:41:12.194Z,99460.03
2023-05-21T20:43:38.785Z,99454.84
2023-05-21T20:46:05.746Z,99446.28
2023-05-21T20:48:32.442Z,99445.63
2023-05-21T20:50:59.940Z,99452.81
2023-05-21T20:53:26.605Z,99447.63
2023-05-21T20:55:54.578Z,99442.63
2023-05-21T20:58:23.935Z,99449.84
2023-05-21T21:00:50.531Z,99441.28
2023-05-21T21:03:18.062Z,99446.84
2023-05-21T21:05:44.860Z,99450.72
2023-05-21T21:08:12.294Z,99447.22
2023-05-21T21:10:41.289Z,99453.59
2023-05-21T21:13:07.857Z,99451.72
2023-05-21T21:15:34.836Z,99449.41
2023-05-21T21:18:01.527Z,99452.09
2023-05-21T21:20:28.100Z,99454.31
2023-05-21T21:22:54.589Z,99446.44
2023-05-21T21:25:21.316Z,99460.66
2023-05-21T21:27:47.748Z,99463.53
2023-05-21T21:30:14.241Z,99452.81
2023-05-21T21:32:41.042Z,99461.03
2023-05-21T21:35:07.825Z,99453.16
2023-05-21T21:37:34.471Z,99456.69
2023-05-21T21:40:00.985Z,99444.44
2023-05-21T21:42:27.575Z,99446.63
2023-05-21T21:44:54.039Z,99454.06
2023-05-21T21:47:20.580Z,99448.00
2023-05-21T21:49:48.095Z,99448.19
2023-05-21T21:52:14.719Z,99451.38
2023-05-21T21:54:41.190Z,99445.53
2023-05-21T21:57:07.720Z,99448.56
2023-05-21T21:59:34.574Z,99448.28
2023-05-21T22:02:01.206Z,99445.09
2023-05-21T22:04:27.913Z,99449.78
2023-05-21T22:06:54.878Z,99441.09
2023-05-21T22:09:22.457Z,99445.97
2023-05-21T22:11:49.097Z,99440.97
2023-05-21T22:14:15.877Z,99437.78
2023-05-21T22:16:43.115Z,99438.28
2023-05-21T22:19:10.100Z,99440.47
2023-05-21T22:21:36.815Z,99435.66
2023-05-21T22:24:03.989Z,99438.00
2023-05-21T22:26:30.552Z,99436.47
2023-05-21T22:28:59.010Z,99440.66
2023-05-21T22:31:26.584Z,99444.53
2023-05-21T22:33:53.184Z,99438.53
2023-05-21T22:36:19.633Z,99436.66
2023-05-21T22:38:46.157Z,99447.41
2023-05-21T22:41:13.362Z,99443.03
2023-05-21T22:43:39.817Z,99439.03
2023-05-21T22:46:06.396Z,99443.88
2023-05-21T22:48:34.402Z,99438.22
2023-05-21T22:51:01.649Z,99442.25
2023-05-21T22:53:28.201Z,99441.91
2023-05-21T22:55:54.930Z,99445.09
2023-05-21T22:58:21.470Z,99445.44
2023-05-21T23:00:48.084Z,99443.09
2023-05-21T23:03:14.654Z,99443.25
2023-05-21T23:05:41.343Z,99433.22
2023-05-21T23:08:08.030Z,99432.06
2023-05-21T23:10:35.506Z,99440.41
2023-05-21T23:13:02.125Z,99439.94
2023-05-21T23:15:29.683Z,99443.28
2023-05-21T23:17:56.985Z,99437.25
2023-05-21T23:20:24.848Z,99439.09
2023-05-21T23:22:52.156Z,99435.91
2023-05-21T23:25:18.660Z,99438.78
2023-05-21T23:27:45.282Z,99443.94
2023-05-21T23:30:11.895Z,99446.81
2023-05-21T23:32:38.440Z,99440.94
2023-05-21T23:35:05.439Z,99449.81
2023-05-21T23:37:32.110Z,99451.66
2023-05-21T23:39:58.722Z,99448.97
2023-05-21T23:42:25.239Z,99456.19
2023-05-21T23:44:51.894Z,99455.34
2023-05-21T23:47:18.390Z,99458.88
2023-05-21T23:49:44.856Z,99459.88
2023-05-21T23:52:13.007Z,99457.34
2023-05-21T23:54:39.522Z,99449.47
2023-05-21T23:57:06.313Z,99450.16
2023-05-21T23:59:32.818Z,99448.47
